sensor_id;sensor_type;location;lat;lon;timestamp;temperature;humidity
38456;DHT22;24237;50.106;20.014;2023-06-22T00:01:49;24.00;99.90
38456;DHT22;24237;50.106;20.014;2023-06-22T00:04:15;23.90;99.90
38456;DHT22;24237;50.106;20.014;2023-06-22T00:06:41;24.10;99.90
38456;DHT22;24237;50.106;20.014;2023-06-22T00:09:06;24.00;99.90
38456;DHT22;24237;50.106;20.014;2023-06-22T00:11:36;24.10;99.90
38456;DHT22;24237;50.106;20.014;2023-06-22T00:14:02;24.00;99.90
38456;DHT22;24237;50.106;20.014;2023-06-22T00:16:28;24.00;99.90
38456;DHT22;24237;50.106;20.014;2023-06-22T00:18:53;24.00;99.90
38456;DHT22;24237;50.106;20.014;2023-06-22T00:21:19;24.20;99.90
38456;DHT22;24237;50.106;20.014;2023-06-22T00:23:47;24.30;99.90
38456;DHT22;24237;50.106;20.014;2023-06-22T00:26:13;24.10;99.90
38456;DHT22;24237;50.106;20.014;2023-06-22T00:28:39;24.10;99.90
38456;DHT22;24237;50.106;20.014;2023-06-22T00:31:05;24.10;99.90
38456;DHT22;24237;50.106;20.014;2023-06-22T00:33:30;24.10;99.90
38456;DHT22;24237;50.106;20.014;2023-06-22T00:35:57;24.10;99.90
38456;DHT22;24237;50.106;20.014;2023-06-22T00:38:22;24.00;99.90
38456;DHT22;24237;50.106;20.014;2023-06-22T00:40:48;24.20;99.90
38456;DHT22;24237;50.106;20.014;2023-06-22T00:43:14;24.00;99.90
38456;DHT22;24237;50.106;20.014;2023-06-22T00:45:39;24.30;99.90
38456;DHT22;24237;50.106;20.014;2023-06-22T00:48:06;24.30;99.90
38456;DHT22;24237;50.106;20.014;2023-06-22T00:50:33;24.30;99.90
38456;DHT22;24237;50.106;20.014;2023-06-22T00:53:01;24.30;99.90
38456;DHT22;24237;50.106;20.014;2023-06-22T00:55:30;24.20;99.90
38456;DHT22;24237;50.106;20.014;2023-06-22T00:57:55;24.30;99.90
38456;DHT22;24237;50.106;20.014;2023-06-22T01:00:23;24.30;99.90
38456;DHT22;24237;50.106;20.014;2023-06-22T01:02:51;24.10;99.90
38456;DHT22;24237;50.106;20.014;2023-06-22T01:05:19;24.10;99.90
38456;DHT22;24237;50.106;20.014;2023-06-22T01:07:51;24.10;99.90
38456;DHT22;24237;50.106;20.014;2023-06-22T01:16:25;24.20;99.90
38456;DHT22;24237;50.106;20.014;2023-06-22T01:18:54;24.10;99.90
38456;DHT22;24237;50.106;20.014;2023-06-22T01:21:22;23.90;99.90
38456;DHT22;24237;50.106;20.014;2023-06-22T01:29:03;24.10;99.90
38456;DHT22;24237;50.106;20.014;2023-06-22T01:31:29;24.20;99.90
38456;DHT22;24237;50.106;20.014;2023-06-22T01:33:57;24.30;99.90
38456;DHT22;24237;50.106;20.014;2023-06-22T01:36:24;24.20;99.90
38456;DHT22;24237;50.106;20.014;2023-06-22T01:38:52;24.00;99.90
38456;DHT22;24237;50.106;20.014;2023-06-22T01:41:19;23.90;99.90
38456;DHT22;24237;50.106;20.014;2023-06-22T01:43:45;23.80;99.90
38456;DHT22;24237;50.106;20.014;2023-06-22T01:46:12;23.70;99.90
38456;DHT22;24237;50.106;20.014;2023-06-22T01:48:38;23.60;99.90
38456;DHT22;24237;50.106;20.014;2023-06-22T01:51:05;23.80;99.90
38456;DHT22;24237;50.106;20.014;2023-06-22T01:53:30;23.80;99.90
38456;DHT22;24237;50.106;20.014;2023-06-22T01:55:57;23.60;99.90
38456;DHT22;24237;50.106;20.014;2023-06-22T01:58:26;23.50;99.90
38456;DHT22;24237;50.106;20.014;2023-06-22T02:01:00;23.50;99.90
38456;DHT22;24237;50.106;20.014;2023-06-22T02:03:43;23.90;99.90
38456;DHT22;24237;50.106;20.014;2023-06-22T02:06:24;23.90;99.90
38456;DHT22;24237;50.106;20.014;2023-06-22T02:08:56;23.80;99.90
38456;DHT22;24237;50.106;20.014;2023-06-22T02:11:23;23.80;99.90
38456;DHT22;24237;50.106;20.014;2023-06-22T02:13:51;23.60;99.90
38456;DHT22;24237;50.106;20.014;2023-06-22T02:16:18;23.70;99.90
38456;DHT22;24237;50.106;20.014;2023-06-22T02:18:48;23.90;99.90
38456;DHT22;24237;50.106;20.014;2023-06-22T02:21:16;23.60;99.90
38456;DHT22;24237;50.106;20.014;2023-06-22T02:23:42;23.50;99.90
38456;DHT22;24237;50.106;20.014;2023-06-22T02:26:08;23.30;99.90
38456;DHT22;24237;50.106;20.014;2023-06-22T02:28:33;23.20;99.90
38456;DHT22;24237;50.106;20.014;2023-06-22T02:30:59;23.10;99.90
38456;DHT22;24237;50.106;20.014;2023-06-22T02:33:25;23.10;99.90
38456;DHT22;24237;50.106;20.014;2023-06-22T02:35:50;23.10;99.90
38456;DHT22;24237;50.106;20.014;2023-06-22T02:38:16;23.10;99.90
38456;DHT22;24237;50.106;20.014;2023-06-22T02:40:43;23.10;99.90
38456;DHT22;24237;50.106;20.014;2023-06-22T02:43:08;23.00;99.90
38456;DHT22;24237;50.106;20.014;2023-06-22T02:45:34;23.20;99.90
38456;DHT22;24237;50.106;20.014;2023-06-22T02:48:00;23.10;99.90
38456;DHT22;24237;50.106;20.014;2023-06-22T02:50:25;23.10;99.90
38456;DHT22;24237;50.106;20.014;2023-06-22T02:52:51;23.10;99.90
38456;DHT22;24237;50.106;20.014;2023-06-22T02:55:17;23.00;99.90
38456;DHT22;24237;50.106;20.014;2023-06-22T02:57:42;23.00;99.90
38456;DHT22;24237;50.106;20.014;2023-06-22T03:00:11;23.00;99.90
38456;DHT22;24237;50.106;20.014;2023-06-22T03:02:47;22.80;99.90
38456;DHT22;24237;50.106;20.014;2023-06-22T03:05:13;23.00;99.90
38456;DHT22;24237;50.106;20.014;2023-06-22T03:07:43;23.00;99.90
38456;DHT22;24237;50.106;20.014;2023-06-22T03:10:09;23.00;99.90
38456;DHT22;24237;50.106;20.014;2023-06-22T03:12:38;23.20;99.90
38456;DHT22;24237;50.106;20.014;2023-06-22T03:15:06;23.00;99.90
38456;DHT22;24237;50.106;20.014;2023-06-22T03:17:32;22.90;99.90
38456;DHT22;24237;50.106;20.014;2023-06-22T03:19:58;22.80;99.90
38456;DHT22;24237;50.106;20.014;2023-06-22T03:22:24;22.80;99.90
38456;DHT22;24237;50.106;20.014;2023-06-22T03:24:49;22.80;99.90
38456;DHT22;24237;50.106;20.014;2023-06-22T03:27:15;22.80;99.90
38456;DHT22;24237;50.106;20.014;2023-06-22T03:29:40;22.80;99.90
38456;DHT22;24237;50.106;20.014;2023-06-22T03:32:06;22.80;99.90
38456;DHT22;24237;50.106;20.014;2023-06-22T03:34:35;22.70;99.90
38456;DHT22;24237;50.106;20.014;2023-06-22T03:37:04;22.80;99.90
38456;DHT22;24237;50.106;20.014;2023-06-22T03:39:29;22.80;99.90
38456;DHT22;24237;50.106;20.014;2023-06-22T03:41:55;22.70;99.90
38456;DHT22;24237;50.106;20.014;2023-06-22T03:44:21;22.60;99.90
38456;DHT22;24237;50.106;20.014;2023-06-22T03:46:46;22.50;99.90
38456;DHT22;24237;50.106;20.014;2023-06-22T03:49:12;22.70;99.90
38456;DHT22;24237;50.106;20.014;2023-06-22T03:51:37;22.70;99.90
38456;DHT22;24237;50.106;20.014;2023-06-22T03:54:04;22.80;99.90
38456;DHT22;24237;50.106;20.014;2023-06-22T03:56:29;22.70;99.90
38456;DHT22;24237;50.106;20.014;2023-06-22T03:58:55;22.90;99.90
38456;DHT22;24237;50.106;20.014;2023-06-22T04:01:21;22.80;99.90
38456;DHT22;24237;50.106;20.014;2023-06-22T04:03:47;22.90;99.90
38456;DHT22;24237;50.106;20.014;2023-06-22T04:06:15;22.90;99.90
38456;DHT22;24237;50.106;20.014;2023-06-22T04:08:40;22.90;99.90
38456;DHT22;24237;50.106;20.014;2023-06-22T04:11:06;22.80;99.90
38456;DHT22;24237;50.106;20.014;2023-06-22T04:13:32;22.80;99.90
38456;DHT22;24237;50.106;20.014;2023-06-22T04:15:57;22.80;99.90
38456;DHT22;24237;50.106;20.014;2023-06-22T04:18:23;22.90;99.90
38456;DHT22;24237;50.106;20.014;2023-06-22T04:20:49;23.10;99.90
38456;DHT22;24237;50.106;20.014;2023-06-22T04:23:14;23.20;99.90
38456;DHT22;24237;50.106;20.014;2023-06-22T04:25:40;23.40;99.90
38456;DHT22;24237;50.106;20.014;2023-06-22T04:28:06;23.30;99.90
38456;DHT22;24237;50.106;20.014;2023-06-22T04:30:37;23.10;99.90
38456;DHT22;24237;50.106;20.014;2023-06-22T04:33:14;23.10;99.90
38456;DHT22;24237;50.106;20.014;2023-06-22T04:35:39;23.20;99.90
38456;DHT22;24237;50.106;20.014;2023-06-22T04:38:08;23.00;99.90
38456;DHT22;24237;50.106;20.014;2023-06-22T04:40:34;23.30;99.90
38456;DHT22;24237;50.106;20.014;2023-06-22T04:42:59;23.50;99.90
38456;DHT22;24237;50.106;20.014;2023-06-22T04:45:28;23.60;99.90
38456;DHT22;24237;50.106;20.014;2023-06-22T04:47:54;23.60;99.90
38456;DHT22;24237;50.106;20.014;2023-06-22T04:50:20;23.50;99.90
38456;DHT22;24237;50.106;20.014;2023-06-22T04:52:47;24.10;99.90
38456;DHT22;24237;50.106;20.014;2023-06-22T04:55:13;24.50;99.90
38456;DHT22;24237;50.106;20.014;2023-06-22T04:57:46;24.60;99.90
38456;DHT22;24237;50.106;20.014;2023-06-22T05:00:16;24.60;99.90
38456;DHT22;24237;50.106;20.014;2023-06-22T05:02:43;24.70;99.90
38456;DHT22;24237;50.106;20.014;2023-06-22T05:05:08;24.40;99.90
38456;DHT22;24237;50.106;20.014;2023-06-22T05:07:40;24.50;99.90
38456;DHT22;24237;50.106;20.014;2023-06-22T05:10:09;24.70;99.90
38456;DHT22;24237;50.106;20.014;2023-06-22T05:12:39;24.70;99.90
38456;DHT22;24237;50.106;20.014;2023-06-22T05:15:06;24.90;99.90
38456;DHT22;24237;50.106;20.014;2023-06-22T05:17:32;24.90;99.90
38456;DHT22;24237;50.106;20.014;2023-06-22T05:19:57;24.90;99.90
38456;DHT22;24237;50.106;20.014;2023-06-22T05:22:23;25.10;99.90
38456;DHT22;24237;50.106;20.014;2023-06-22T05:24:49;25.30;99.90
38456;DHT22;24237;50.106;20.014;2023-06-22T05:27:15;25.40;99.90
38456;DHT22;24237;50.106;20.014;2023-06-22T05:29:40;25.40;99.90
38456;DHT22;24237;50.106;20.014;2023-06-22T05:32:08;25.50;99.90
38456;DHT22;24237;50.106;20.014;2023-06-22T05:34:34;25.50;99.90
38456;DHT22;24237;50.106;20.014;2023-06-22T05:36:59;25.40;99.90
38456;DHT22;24237;50.106;20.014;2023-06-22T05:39:25;25.30;99.90
38456;DHT22;24237;50.106;20.014;2023-06-22T05:41:52;25.30;99.90
38456;DHT22;24237;50.106;20.014;2023-06-22T05:44:18;25.50;99.90
38456;DHT22;24237;50.106;20.014;2023-06-22T05:46:44;25.70;99.90
38456;DHT22;24237;50.106;20.014;2023-06-22T05:49:14;25.80;99.90
38456;DHT22;24237;50.106;20.014;2023-06-22T05:51:40;25.90;99.90
38456;DHT22;24237;50.106;20.014;2023-06-22T05:54:06;26.00;99.90
38456;DHT22;24237;50.106;20.014;2023-06-22T05:56:34;25.80;99.90
38456;DHT22;24237;50.106;20.014;2023-06-22T05:58:59;26.00;99.90
38456;DHT22;24237;50.106;20.014;2023-06-22T06:01:25;26.00;99.90
38456;DHT22;24237;50.106;20.014;2023-06-22T06:03:51;26.30;99.90
38456;DHT22;24237;50.106;20.014;2023-06-22T06:06:18;26.40;99.90
38456;DHT22;24237;50.106;20.014;2023-06-22T06:08:46;26.40;99.90
38456;DHT22;24237;50.106;20.014;2023-06-22T06:11:11;26.20;99.90
38456;DHT22;24237;50.106;20.014;2023-06-22T06:13:37;26.20;99.90
38456;DHT22;24237;50.106;20.014;2023-06-22T06:16:03;26.50;99.90
38456;DHT22;24237;50.106;20.014;2023-06-22T06:18:29;26.40;99.90
38456;DHT22;24237;50.106;20.014;2023-06-22T06:20:54;26.60;99.90
38456;DHT22;24237;50.106;20.014;2023-06-22T06:23:20;26.90;99.90
38456;DHT22;24237;50.106;20.014;2023-06-22T06:25:45;27.30;99.90
38456;DHT22;24237;50.106;20.014;2023-06-22T06:28:11;27.10;99.90
38456;DHT22;24237;50.106;20.014;2023-06-22T06:30:37;26.80;99.90
38456;DHT22;24237;50.106;20.014;2023-06-22T06:33:03;26.50;99.90
38456;DHT22;24237;50.106;20.014;2023-06-22T06:35:34;26.40;99.90
38456;DHT22;24237;50.106;20.014;2023-06-22T06:37:59;26.40;99.90
38456;DHT22;24237;50.106;20.014;2023-06-22T06:40:25;26.30;99.90
38456;DHT22;24237;50.106;20.014;2023-06-22T06:42:50;26.50;99.90
38456;DHT22;24237;50.106;20.014;2023-06-22T06:45:21;26.50;99.90
38456;DHT22;24237;50.106;20.014;2023-06-22T06:47:49;26.60;99.90
38456;DHT22;24237;50.106;20.014;2023-06-22T06:50:15;26.60;99.90
38456;DHT22;24237;50.106;20.014;2023-06-22T06:52:41;27.00;99.90
38456;DHT22;24237;50.106;20.014;2023-06-22T06:55:08;27.40;99.90
38456;DHT22;24237;50.106;20.014;2023-06-22T06:57:40;27.70;99.90
38456;DHT22;24237;50.106;20.014;2023-06-22T07:00:09;27.60;99.90
38456;DHT22;24237;50.106;20.014;2023-06-22T07:02:39;28.00;99.90
38456;DHT22;24237;50.106;20.014;2023-06-22T07:05:08;27.80;99.90
38456;DHT22;24237;50.106;20.014;2023-06-22T07:07:36;27.40;99.90
38456;DHT22;24237;50.106;20.014;2023-06-22T07:10:02;27.40;99.90
38456;DHT22;24237;50.106;20.014;2023-06-22T07:12:28;27.30;99.90
38456;DHT22;24237;50.106;20.014;2023-06-22T07:14:57;27.40;99.90
38456;DHT22;24237;50.106;20.014;2023-06-22T07:17:26;27.80;99.90
38456;DHT22;24237;50.106;20.014;2023-06-22T07:19:51;28.00;99.90
38456;DHT22;24237;50.106;20.014;2023-06-22T07:22:17;28.30;99.90
38456;DHT22;24237;50.106;20.014;2023-06-22T07:24:42;28.40;99.90
38456;DHT22;24237;50.106;20.014;2023-06-22T07:27:08;28.20;99.90
38456;DHT22;24237;50.106;20.014;2023-06-22T07:29:36;28.00;99.90
38456;DHT22;24237;50.106;20.014;2023-06-22T07:32:03;27.90;99.90
38456;DHT22;24237;50.106;20.014;2023-06-22T07:34:30;27.70;99.90
38456;DHT22;24237;50.106;20.014;2023-06-22T07:36:56;27.60;99.90
38456;DHT22;24237;50.106;20.014;2023-06-22T07:39:21;27.70;99.90
38456;DHT22;24237;50.106;20.014;2023-06-22T07:41:51;27.40;99.90
38456;DHT22;24237;50.106;20.014;2023-06-22T07:44:16;27.50;99.90
38456;DHT22;24237;50.106;20.014;2023-06-22T07:46:42;27.70;99.90
38456;DHT22;24237;50.106;20.014;2023-06-22T07:49:08;27.60;99.90
38456;DHT22;24237;50.106;20.014;2023-06-22T07:51:34;27.50;99.90
38456;DHT22;24237;50.106;20.014;2023-06-22T07:53:59;27.60;99.90
38456;DHT22;24237;50.106;20.014;2023-06-22T07:56:25;27.70;99.90
38456;DHT22;24237;50.106;20.014;2023-06-22T07:58:51;27.40;99.90
38456;DHT22;24237;50.106;20.014;2023-06-22T08:01:17;27.50;99.90
38456;DHT22;24237;50.106;20.014;2023-06-22T08:03:43;27.50;99.90
38456;DHT22;24237;50.106;20.014;2023-06-22T08:06:09;27.50;99.90
38456;DHT22;24237;50.106;20.014;2023-06-22T08:08:38;27.40;99.90
38456;DHT22;24237;50.106;20.014;2023-06-22T08:11:03;27.30;99.90
38456;DHT22;24237;50.106;20.014;2023-06-22T08:13:29;27.30;99.90
38456;DHT22;24237;50.106;20.014;2023-06-22T08:15:55;27.60;99.90
38456;DHT22;24237;50.106;20.014;2023-06-22T08:18:20;28.00;99.90
38456;DHT22;24237;50.106;20.014;2023-06-22T08:20:46;27.90;99.90
38456;DHT22;24237;50.106;20.014;2023-06-22T08:23:12;27.80;99.90
38456;DHT22;24237;50.106;20.014;2023-06-22T08:25:37;27.90;99.90
38456;DHT22;24237;50.106;20.014;2023-06-22T08:28:04;28.00;99.90
38456;DHT22;24237;50.106;20.014;2023-06-22T08:30:30;28.20;99.90
38456;DHT22;24237;50.106;20.014;2023-06-22T08:32:55;28.40;99.90
38456;DHT22;24237;50.106;20.014;2023-06-22T08:35:24;28.40;99.90
38456;DHT22;24237;50.106;20.014;2023-06-22T08:37:50;28.90;99.90
38456;DHT22;24237;50.106;20.014;2023-06-22T08:40:18;29.00;99.90
38456;DHT22;24237;50.106;20.014;2023-06-22T08:42:45;28.80;99.90
38456;DHT22;24237;50.106;20.014;2023-06-22T08:45:12;28.50;99.90
38456;DHT22;24237;50.106;20.014;2023-06-22T08:47:38;28.50;99.90
38456;DHT22;24237;50.106;20.014;2023-06-22T08:50:05;28.40;99.90
38456;DHT22;24237;50.106;20.014;2023-06-22T08:52:31;28.30;99.90
38456;DHT22;24237;50.106;20.014;2023-06-22T08:54:57;28.40;99.90
38456;DHT22;24237;50.106;20.014;2023-06-22T08:57:28;28.30;99.90
38456;DHT22;24237;50.106;20.014;2023-06-22T08:59:56;28.20;99.90
38456;DHT22;24237;50.106;20.014;2023-06-22T09:02:24;28.50;99.90
38456;DHT22;24237;50.106;20.014;2023-06-22T09:04:49;28.70;99.90
38456;DHT22;24237;50.106;20.014;2023-06-22T09:07:22;28.60;99.90
38456;DHT22;24237;50.106;20.014;2023-06-22T09:09:49;28.70;99.90
38456;DHT22;24237;50.106;20.014;2023-06-22T09:12:14;29.10;99.90
38456;DHT22;24237;50.106;20.014;2023-06-22T09:14:40;28.80;99.90
38456;DHT22;24237;50.106;20.014;2023-06-22T09:17:05;28.70;99.90
38456;DHT22;24237;50.106;20.014;2023-06-22T09:19:31;28.70;99.90
38456;DHT22;24237;50.106;20.014;2023-06-22T09:21:57;29.20;99.90
38456;DHT22;24237;50.106;20.014;2023-06-22T09:24:22;29.10;99.90
38456;DHT22;24237;50.106;20.014;2023-06-22T09:26:48;29.20;99.90
38456;DHT22;24237;50.106;20.014;2023-06-22T09:29:14;29.10;99.90
38456;DHT22;24237;50.106;20.014;2023-06-22T09:31:39;28.70;99.90
38456;DHT22;24237;50.106;20.014;2023-06-22T09:34:05;28.50;99.90
38456;DHT22;24237;50.106;20.014;2023-06-22T09:36:30;28.70;99.90
38456;DHT22;24237;50.106;20.014;2023-06-22T09:38:56;29.00;99.90
38456;DHT22;24237;50.106;20.014;2023-06-22T09:41:24;28.90;99.90
38456;DHT22;24237;50.106;20.014;2023-06-22T09:43:50;29.10;99.90
38456;DHT22;24237;50.106;20.014;2023-06-22T09:46:16;29.30;99.90
38456;DHT22;24237;50.106;20.014;2023-06-22T09:48:42;29.30;99.90
38456;DHT22;24237;50.106;20.014;2023-06-22T09:51:07;29.40;99.90
38456;DHT22;24237;50.106;20.014;2023-06-22T09:53:33;29.50;99.90
38456;DHT22;24237;50.106;20.014;2023-06-22T09:56:00;29.80;99.90
38456;DHT22;24237;50.106;20.014;2023-06-22T09:58:27;29.60;99.90
38456;DHT22;24237;50.106;20.014;2023-06-22T10:00:52;29.50;99.90
38456;DHT22;24237;50.106;20.014;2023-06-22T10:03:19;29.50;99.90
38456;DHT22;24237;50.106;20.014;2023-06-22T10:05:45;29.10;99.90
38456;DHT22;24237;50.106;20.014;2023-06-22T10:08:11;29.20;99.90
38456;DHT22;24237;50.106;20.014;2023-06-22T10:10:36;29.30;99.90
38456;DHT22;24237;50.106;20.014;2023-06-22T10:13:09;29.50;99.90
38456;DHT22;24237;50.106;20.014;2023-06-22T10:15:38;30.20;99.90
38456;DHT22;24237;50.106;20.014;2023-06-22T10:18:04;30.10;99.90
38456;DHT22;24237;50.106;20.014;2023-06-22T10:20:29;30.00;99.90
38456;DHT22;24237;50.106;20.014;2023-06-22T10:22:55;29.80;99.90
38456;DHT22;24237;50.106;20.014;2023-06-22T10:25:21;29.60;99.90
38456;DHT22;24237;50.106;20.014;2023-06-22T10:27:47;29.60;99.90
38456;DHT22;24237;50.106;20.014;2023-06-22T10:30:13;29.40;99.90
38456;DHT22;24237;50.106;20.014;2023-06-22T10:32:39;29.40;99.90
38456;DHT22;24237;50.106;20.014;2023-06-22T10:35:06;29.80;99.90
38456;DHT22;24237;50.106;20.014;2023-06-22T10:37:32;29.80;99.90
38456;DHT22;24237;50.106;20.014;2023-06-22T10:39:57;29.90;99.90
38456;DHT22;24237;50.106;20.014;2023-06-22T10:42:23;30.20;99.90
38456;DHT22;24237;50.106;20.014;2023-06-22T10:44:49;30.60;99.90
38456;DHT22;24237;50.106;20.014;2023-06-22T10:47:14;30.80;99.90
38456;DHT22;24237;50.106;20.014;2023-06-22T10:49:40;30.40;99.90
38456;DHT22;24237;50.106;20.014;2023-06-22T10:52:07;30.40;99.90
38456;DHT22;24237;50.106;20.014;2023-06-22T10:54:34;30.30;99.90
38456;DHT22;24237;50.106;20.014;2023-06-22T10:57:01;30.70;99.90
38456;DHT22;24237;50.106;20.014;2023-06-22T10:59:27;30.80;99.90
38456;DHT22;24237;50.106;20.014;2023-06-22T11:01:54;30.30;99.90
38456;DHT22;24237;50.106;20.014;2023-06-22T11:04:20;30.40;99.90
38456;DHT22;24237;50.106;20.014;2023-06-22T11:06:47;30.70;99.90
38456;DHT22;24237;50.106;20.014;2023-06-22T11:09:14;31.00;99.90
38456;DHT22;24237;50.106;20.014;2023-06-22T11:11:44;30.90;99.90
38456;DHT22;24237;50.106;20.014;2023-06-22T11:14:10;30.60;99.90
38456;DHT22;24237;50.106;20.014;2023-06-22T11:16:36;30.70;99.90
38456;DHT22;24237;50.106;20.014;2023-06-22T11:19:01;30.60;99.90
38456;DHT22;24237;50.106;20.014;2023-06-22T11:21:29;31.00;99.90
38456;DHT22;24237;50.106;20.014;2023-06-22T11:23:55;31.40;99.90
38456;DHT22;24237;50.106;20.014;2023-06-22T11:26:59;31.30;99.90
38456;DHT22;24237;50.106;20.014;2023-06-22T11:29:25;31.10;99.90
38456;DHT22;24237;50.106;20.014;2023-06-22T11:31:50;31.00;99.90
38456;DHT22;24237;50.106;20.014;2023-06-22T11:34:16;31.00;99.90
38456;DHT22;24237;50.106;20.014;2023-06-22T11:36:42;31.20;99.90
38456;DHT22;24237;50.106;20.014;2023-06-22T11:39:09;31.50;99.90
38456;DHT22;24237;50.106;20.014;2023-06-22T11:41:35;31.60;99.90
38456;DHT22;24237;50.106;20.014;2023-06-22T11:44:01;31.50;99.90
38456;DHT22;24237;50.106;20.014;2023-06-22T11:46:26;31.40;99.90
38456;DHT22;24237;50.106;20.014;2023-06-22T11:48:52;31.40;99.90
38456;DHT22;24237;50.106;20.014;2023-06-22T11:51:18;31.60;99.90
38456;DHT22;24237;50.106;20.014;2023-06-22T11:53:43;32.10;99.90
38456;DHT22;24237;50.106;20.014;2023-06-22T11:56:09;32.30;99.90
38456;DHT22;24237;50.106;20.014;2023-06-22T11:58:34;31.90;99.90
38456;DHT22;24237;50.106;20.014;2023-06-22T12:01:00;31.90;99.90
38456;DHT22;24237;50.106;20.014;2023-06-22T12:03:26;32.00;99.90
38456;DHT22;24237;50.106;20.014;2023-06-22T12:05:51;31.80;99.90
38456;DHT22;24237;50.106;20.014;2023-06-22T12:08:17;32.00;99.50
38456;DHT22;24237;50.106;20.014;2023-06-22T12:10:43;32.20;99.60
38456;DHT22;24237;50.106;20.014;2023-06-22T12:13:09;32.80;99.80
38456;DHT22;24237;50.106;20.014;2023-06-22T12:15:35;32.50;99.40
38456;DHT22;24237;50.106;20.014;2023-06-22T12:18:00;32.70;98.70
38456;DHT22;24237;50.106;20.014;2023-06-22T12:20:26;32.90;98.60
38456;DHT22;24237;50.106;20.014;2023-06-22T12:22:52;32.80;98.70
38456;DHT22;24237;50.106;20.014;2023-06-22T12:25:19;33.10;98.40
38456;DHT22;24237;50.106;20.014;2023-06-22T12:27:45;33.10;98.00
38456;DHT22;24237;50.106;20.014;2023-06-22T12:30:10;32.80;98.30
38456;DHT22;24237;50.106;20.014;2023-06-22T12:32:36;32.90;98.50
38456;DHT22;24237;50.106;20.014;2023-06-22T12:35:01;32.80;98.40
38456;DHT22;24237;50.106;20.014;2023-06-22T12:37:27;33.40;97.50
38456;DHT22;24237;50.106;20.014;2023-06-22T12:39:54;33.60;97.60
38456;DHT22;24237;50.106;20.014;2023-06-22T12:42:20;33.40;97.10
38456;DHT22;24237;50.106;20.014;2023-06-22T12:44:46;33.10;97.30
38456;DHT22;24237;50.106;20.014;2023-06-22T12:47:12;33.20;98.30
38456;DHT22;24237;50.106;20.014;2023-06-22T12:49:38;33.80;97.10
38456;DHT22;24237;50.106;20.014;2023-06-22T12:52:09;34.00;96.70
38456;DHT22;24237;50.106;20.014;2023-06-22T12:54:35;34.20;96.70
38456;DHT22;24237;50.106;20.014;2023-06-22T12:57:01;34.30;97.60
38456;DHT22;24237;50.106;20.014;2023-06-22T12:59:27;34.30;96.30
38456;DHT22;24237;50.106;20.014;2023-06-22T13:01:53;34.60;95.90
38456;DHT22;24237;50.106;20.014;2023-06-22T13:04:18;34.90;96.40
38456;DHT22;24237;50.106;20.014;2023-06-22T13:06:45;34.80;96.00
38456;DHT22;24237;50.106;20.014;2023-06-22T13:09:18;35.80;94.60
38456;DHT22;24237;50.106;20.014;2023-06-22T13:11:44;36.80;93.40
38456;DHT22;24237;50.106;20.014;2023-06-22T13:14:12;36.70;92.90
38456;DHT22;24237;50.106;20.014;2023-06-22T13:16:38;36.10;93.20
38456;DHT22;24237;50.106;20.014;2023-06-22T13:19:03;36.10;93.60
38456;DHT22;24237;50.106;20.014;2023-06-22T13:21:30;35.40;93.00
38456;DHT22;24237;50.106;20.014;2023-06-22T13:23:56;35.90;93.30
38456;DHT22;24237;50.106;20.014;2023-06-22T13:26:21;35.80;93.40
38456;DHT22;24237;50.106;20.014;2023-06-22T13:28:48;35.60;93.60
38456;DHT22;24237;50.106;20.014;2023-06-22T13:31:13;36.00;93.10
38456;DHT22;24237;50.106;20.014;2023-06-22T13:33:39;36.30;92.70
38456;DHT22;24237;50.106;20.014;2023-06-22T13:36:06;36.00;92.70
38456;DHT22;24237;50.106;20.014;2023-06-22T13:38:34;35.80;92.40
38456;DHT22;24237;50.106;20.014;2023-06-22T13:41:00;35.60;92.80
38456;DHT22;24237;50.106;20.014;2023-06-22T13:43:27;35.70;92.90
38456;DHT22;24237;50.106;20.014;2023-06-22T13:45:53;35.60;92.30
38456;DHT22;24237;50.106;20.014;2023-06-22T13:48:18;36.00;92.00
38456;DHT22;24237;50.106;20.014;2023-06-22T13:50:44;36.80;91.60
38456;DHT22;24237;50.106;20.014;2023-06-22T13:53:10;37.10;91.80
38456;DHT22;24237;50.106;20.014;2023-06-22T13:55:35;36.80;91.10
38456;DHT22;24237;50.106;20.014;2023-06-22T13:58:01;37.50;90.40
38456;DHT22;24237;50.106;20.014;2023-06-22T14:00:26;38.00;90.00
38456;DHT22;24237;50.106;20.014;2023-06-22T14:02:53;38.80;87.70
38456;DHT22;24237;50.106;20.014;2023-06-22T14:05:19;37.60;89.20
38456;DHT22;24237;50.106;20.014;2023-06-22T14:07:48;36.90;88.80
38456;DHT22;24237;50.106;20.014;2023-06-22T14:10:13;36.70;90.10
38456;DHT22;24237;50.106;20.014;2023-06-22T14:12:39;36.50;90.00
38456;DHT22;24237;50.106;20.014;2023-06-22T14:15:05;36.50;89.30
38456;DHT22;24237;50.106;20.014;2023-06-22T14:17:31;36.80;89.40
38456;DHT22;24237;50.106;20.014;2023-06-22T14:19:56;37.50;88.80
38456;DHT22;24237;50.106;20.014;2023-06-22T14:22:22;37.70;88.00
38456;DHT22;24237;50.106;20.014;2023-06-22T14:24:48;36.90;88.40
38456;DHT22;24237;50.106;20.014;2023-06-22T14:27:15;37.40;87.90
38456;DHT22;24237;50.106;20.014;2023-06-22T14:29:40;37.60;87.70
38456;DHT22;24237;50.106;20.014;2023-06-22T14:32:07;37.40;86.50
38456;DHT22;24237;50.106;20.014;2023-06-22T14:34:33;36.50;88.00
38456;DHT22;24237;50.106;20.014;2023-06-22T14:37:01;36.70;88.40
38456;DHT22;24237;50.106;20.014;2023-06-22T14:39:27;36.90;88.10
38456;DHT22;24237;50.106;20.014;2023-06-22T14:41:53;37.50;86.40
38456;DHT22;24237;50.106;20.014;2023-06-22T14:44:18;37.10;86.20
38456;DHT22;24237;50.106;20.014;2023-06-22T14:46:44;36.80;87.40
38456;DHT22;24237;50.106;20.014;2023-06-22T14:49:09;36.50;87.70
38456;DHT22;24237;50.106;20.014;2023-06-22T14:51:35;36.40;87.60
38456;DHT22;24237;50.106;20.014;2023-06-22T14:54:00;36.60;87.60
38456;DHT22;24237;50.106;20.014;2023-06-22T14:56:26;36.30;87.90
38456;DHT22;24237;50.106;20.014;2023-06-22T14:58:52;36.00;88.10
38456;DHT22;24237;50.106;20.014;2023-06-22T15:01:17;35.80;88.50
38456;DHT22;24237;50.106;20.014;2023-06-22T15:03:43;36.10;87.80
38456;DHT22;24237;50.106;20.014;2023-06-22T15:06:09;36.80;87.80
38456;DHT22;24237;50.106;20.014;2023-06-22T15:08:37;36.40;88.10
38456;DHT22;24237;50.106;20.014;2023-06-22T15:11:04;36.60;87.20
38456;DHT22;24237;50.106;20.014;2023-06-22T15:13:31;37.00;85.90
38456;DHT22;24237;50.106;20.014;2023-06-22T15:16:01;37.30;84.90
38456;DHT22;24237;50.106;20.014;2023-06-22T15:18:27;37.00;85.10
38456;DHT22;24237;50.106;20.014;2023-06-22T15:20:53;36.70;85.70
38456;DHT22;24237;50.106;20.014;2023-06-22T15:23:18;36.90;84.70